Time;durP1;ratioP1;P1;durP2;ratioP2;P2;SDS_P1;SDS_P2;PMS_P1;PMS_P2;Temp;Humidity;BMP_temperature;BMP_pressure;BME280_temperature;BME280_humidity;BME280_pressure;Samples;Min_cycle;Max_cycle;Signal;HPM_P1;HPM_P2
2023/12/01 00:01:42;;;;;;;27.98;13.10;;;;;;;1.26;100.00;92114.56;5051846;28;20044;-66
2023/12/01 00:04:09;;;;;;;24.65;12.38;;;;;;;1.26;100.00;92118.03;5034796;28;20053;-66
2023/12/01 00:06:36;;;;;;;24.20;11.93;;;;;;;1.35;100.00;92115.63;5052301;28;20418;-66
2023/12/01 00:09:03;;;;;;;23.67;11.45;;;;;;;1.35;100.00;92110.22;5052538;28;20045;-67
2023/12/01 00:11:29;;;;;;;23.10;11.55;;;;;;;1.45;100.00;92110.50;5052196;28;20393;-65
2023/12/01 00:13:56;;;;;;;22.05;11.30;;;;;;;1.35;100.00;92114.88;5052488;28;20504;-67
2023/12/01 00:16:23;;;;;;;22.08;11.25;;;;;;;1.41;100.00;92115.97;5051881;28;20044;-66
2023/12/01 00:18:49;;;;;;;22.05;11.55;;;;;;;1.37;100.00;92120.66;5052308;28;20045;-65
2023/12/01 00:21:16;;;;;;;21.58;11.07;;;;;;;1.40;100.00;92130.63;5052381;28;20074;-65
2023/12/01 00:23:43;;;;;;;20.42;10.70;;;;;;;1.52;100.00;92113.16;5033366;28;20052;-66
2023/12/01 00:26:10;;;;;;;22.60;11.77;;;;;;;1.31;100.00;92114.13;5052300;28;20041;-65
2023/12/01 00:28:37;;;;;;;25.60;12.60;;;;;;;1.26;100.00;92119.97;5051470;28;20043;-66
2023/12/01 00:31:03;;;;;;;24.83;12.20;;;;;;;1.07;100.00;92122.06;5052215;28;20045;-66
2023/12/01 00:33:30;;;;;;;24.33;12.10;;;;;;;1.00;100.00;92116.72;5051593;28;20592;-66
2023/12/01 00:36:00;;;;;;;22.52;11.40;;;;;;;1.08;100.00;92110.09;5052284;28;20040;-66
2023/12/01 00:38:27;;;;;;;25.45;12.02;;;;;;;1.22;100.00;92103.78;5051123;28;20049;-66
2023/12/01 00:40:53;;;;;;;24.08;11.90;;;;;;;1.25;100.00;92113.00;5052304;28;20051;-66
2023/12/01 00:43:20;;;;;;;22.25;11.38;;;;;;;1.28;100.00;92117.63;5050303;28;20041;-66
2023/12/01 00:45:47;;;;;;;20.20;10.13;;;;;;;1.29;100.00;92111.84;5052046;28;20401;-66
2023/12/01 00:48:14;;;;;;;21.20;10.45;;;;;;;1.26;100.00;92109.91;5051663;28;20094;-66
2023/12/01 00:50:41;;;;;;;23.60;10.73;;;;;;;1.27;100.00;92108.75;5049604;28;20049;-66
2023/12/01 00:53:08;;;;;;;21.85;11.13;;;;;;;1.13;100.00;92108.91;5050263;28;20045;-65
2023/12/01 00:55:36;;;;;;;19.83;10.50;;;;;;;1.29;100.00;92106.44;5051305;28;20053;-65
2023/12/01 00:58:03;;;;;;;22.20;10.70;;;;;;;1.28;100.00;92114.94;5051789;28;20045;-66
2023/12/01 01:00:30;;;;;;;21.98;11.50;;;;;;;1.20;100.00;92108.81;5051332;28;20045;-66
2023/12/01 01:02:57;;;;;;;22.75;11.25;;;;;;;1.24;100.00;92106.09;5051650;28;20041;-66
2023/12/01 01:05:24;;;;;;;23.00;10.88;;;;;;;1.28;100.00;92106.81;5050661;28;20083;-66
2023/12/01 01:07:50;;;;;;;22.20;10.38;;;;;;;1.36;100.00;92100.19;5051596;28;20040;-66
2023/12/01 01:10:17;;;;;;;21.50;10.60;;;;;;;1.42;100.00;92095.88;5051553;28;20521;-66
2023/12/01 01:12:44;;;;;;;21.77;9.93;;;;;;;1.48;100.00;92096.97;5049940;28;21835;-66
2023/12/01 01:15:11;;;;;;;22.15;11.00;;;;;;;1.51;100.00;92100.78;5051412;28;20041;-67
2023/12/01 01:17:37;;;;;;;83.88;26.90;;;;;;;1.44;100.00;92109.00;5050548;28;20402;-66
2023/12/01 01:20:05;;;;;;;78.75;25.08;;;;;;;1.45;100.00;92105.88;5051263;28;20123;-66
2023/12/01 01:22:32;;;;;;;50.17;18.58;;;;;;;1.51;100.00;92106.19;5050252;28;20460;-66
2023/12/01 01:24:59;;;;;;;33.83;14.00;;;;;;;1.55;100.00;92113.13;5051107;28;20421;-67
2023/12/01 01:27:26;;;;;;;28.10;12.27;;;;;;;1.59;100.00;92121.94;5050926;28;20107;-66
2023/12/01 01:29:52;;;;;;;24.08;11.30;;;;;;;1.62;100.00;92117.66;5049799;28;20051;-67
2023/12/01 01:32:19;;;;;;;23.15;11.15;;;;;;;1.60;100.00;92122.72;5050435;28;20045;-66
2023/12/01 01:34:46;;;;;;;30.35;13.48;;;;;;;1.69;100.00;92124.94;5050727;28;20421;-67
2023/12/01 01:37:13;;;;;;;24.27;12.45;;;;;;;1.66;100.00;92131.91;5051294;28;20676;-66
2023/12/01 01:39:39;;;;;;;25.70;11.90;;;;;;;1.67;100.00;92133.47;5049237;28;20041;-67
2023/12/01 01:42:06;;;;;;;28.58;12.18;;;;;;;1.67;100.00;92133.47;5051044;28;20045;-67
2023/12/01 01:44:33;;;;;;;28.65;12.80;;;;;;;1.73;100.00;92134.56;5048794;28;20053;-66
2023/12/01 01:47:01;;;;;;;23.50;11.45;;;;;;;1.63;100.00;92140.84;5050880;28;20063;-66
2023/12/01 01:49:28;;;;;;;26.67;11.70;;;;;;;1.45;100.00;92145.66;5050195;28;20037;-66
2023/12/01 01:51:58;;;;;;;31.08;12.23;;;;;;;1.47;100.00;92144.09;5050824;28;20033;-66
2023/12/01 01:54:26;;;;;;;30.55;12.13;;;;;;;1.49;100.00;92149.06;5050059;28;20045;-66
2023/12/01 01:56:53;;;;;;;24.00;11.73;;;;;;;1.48;100.00;92145.63;5050842;28;20033;-67
2023/12/01 01:59:21;;;;;;;24.25;11.43;;;;;;;1.52;100.00;92145.59;5048764;28;20044;-66
2023/12/01 02:01:49;;;;;;;25.95;11.35;;;;;;;1.45;100.00;92134.84;5050552;28;20386;-66
2023/12/01 02:04:16;;;;;;;23.05;10.52;;;;;;;1.50;100.00;92135.16;5050595;28;20067;-66
2023/12/01 02:06:46;;;;;;;21.27;10.75;;;;;;;1.47;100.00;92133.28;5049974;28;20419;-66
2023/12/01 02:09:13;;;;;;;21.40;10.30;;;;;;;1.54;100.00;92130.50;5050169;28;20048;-66
2023/12/01 02:11:41;;;;;;;20.75;9.95;;;;;;;1.55;100.00;92137.44;5050263;28;20040;-66
2023/12/01 02:14:08;;;;;;;19.20;9.80;;;;;;;1.62;100.00;92125.03;5050180;28;20098;-67
2023/12/01 02:16:36;;;;;;;20.08;9.27;;;;;;;1.58;100.00;92125.06;5050048;28;20420;-67
2023/12/01 02:19:03;;;;;;;17.25;8.93;;;;;;;1.59;100.00;92135.47;5050093;28;20047;-67
2023/12/01 02:21:35;;;;;;;17.53;8.57;;;;;;;1.60;100.00;92128.88;5049587;28;20448;-67
2023/12/01 02:24:03;;;;;;;18.17;8.80;;;;;;;1.66;100.00;92126.50;5047997;28;20041;-67
2023/12/01 02:26:30;;;;;;;19.25;10.10;;;;;;;1.62;100.00;92133.88;5049388;28;20403;-66
2023/12/01 02:28:56;;;;;;;20.00;10.73;;;;;;;1.57;100.00;92128.91;5050352;28;20047;-67
2023/12/01 02:31:23;;;;;;;23.85;11.10;;;;;;;1.48;100.00;92140.22;5048905;28;20044;-66
2023/12/01 02:33:53;;;;;;;20.70;10.20;;;;;;;1.36;100.00;92135.31;5048810;28;20051;-66
2023/12/01 02:36:20;;;;;;;23.25;10.52;;;;;;;1.38;100.00;92125.63;5048109;28;20505;-67
2023/12/01 02:38:47;;;;;;;20.15;10.02;;;;;;;1.52;100.00;92135.53;5048379;28;20561;-66
2023/12/01 02:41:15;;;;;;;21.80;10.68;;;;;;;1.47;100.00;92122.47;5049548;28;20053;-67
2023/12/01 02:43:42;;;;;;;24.60;11.27;;;;;;;1.12;100.00;92116.22;5049425;28;20041;-67
2023/12/01 02:46:11;;;;;;;19.77;10.05;;;;;;;1.32;100.00;92132.63;5049872;28;20036;-67
2023/12/01 02:48:41;;;;;;;22.75;10.90;;;;;;;1.40;100.00;92138.75;5049142;28;20055;-67
2023/12/01 02:51:08;;;;;;;23.58;11.32;;;;;;;1.35;100.00;92141.91;5049427;28;20041;-66
2023/12/01 02:53:35;;;;;;;20.33;9.82;;;;;;;1.46;100.00;92130.97;5047511;28;20055;-67
2023/12/01 02:56:01;;;;;;;23.52;10.88;;;;;;;0.90;100.00;92139.19;5049640;28;20052;-67
2023/12/01 02:58:28;;;;;;;20.08;9.73;;;;;;;1.08;100.00;92130.94;5048715;28;20525;-67
2023/12/01 03:00:55;;;;;;;20.23;9.80;;;;;;;1.18;100.00;92152.44;5049570;28;20088;-66
2023/12/01 03:03:21;;;;;;;21.05;10.68;;;;;;;1.27;100.00;92148.50;5035587;28;20047;-67
2023/12/01 03:05:48;;;;;;;23.77;10.65;;;;;;;1.33;100.00;92139.59;5047989;28;20063;-67
2023/12/01 03:08:15;;;;;;;24.02;11.05;;;;;;;1.33;100.00;92133.44;5049676;28;20056;-67
2023/12/01 03:10:42;;;;;;;17.90;9.10;;;;;;;1.36;100.00;92143.41;5048778;28;20049;-67
2023/12/01 03:13:09;;;;;;;18.45;8.98;;;;;;;1.44;100.00;92141.41;5049232;28;20420;-66
2023/12/01 03:15:35;;;;;;;19.08;9.45;;;;;;;1.43;100.00;92140.66;5048956;28;20401;-66
2023/12/01 03:18:02;;;;;;;18.50;8.85;;;;;;;1.47;100.00;92133.28;5048047;28;20047;-66
2023/12/01 03:20:30;;;;;;;19.17;9.15;;;;;;;1.46;100.00;92142.53;5048613;28;20037;-66
2023/12/01 03:22:57;;;;;;;15.88;8.20;;;;;;;1.44;100.00;92144.88;5048779;28;20057;-67
2023/12/01 03:25:24;;;;;;;19.77;9.52;;;;;;;1.41;100.00;92143.00;5048663;28;20041;-66
2023/12/01 03:27:50;;;;;;;18.55;8.68;;;;;;;1.43;100.00;92134.47;5049222;28;20048;-67
2023/12/01 03:30:19;;;;;;;18.48;9.25;;;;;;;1.35;100.00;92136.50;5049112;28;20418;-67
2023/12/01 03:32:53;;;;;;;18.88;9.40;;;;;;;1.42;100.00;92136.41;5047910;28;21013;-66
2023/12/01 03:35:24;;;;;;;19.08;9.90;;;;;;;1.45;100.00;92132.91;5047151;28;20051;-66
2023/12/01 03:37:55;;;;;;;23.17;11.48;;;;;;;1.47;100.00;92127.09;5046845;28;20113;-67
2023/12/01 03:40:23;;;;;;;24.38;11.05;;;;;;;1.26;100.00;92114.56;5044442;28;20375;-67
2023/12/01 03:42:51;;;;;;;19.25;10.82;;;;;;;1.42;100.00;92124.84;5048720;28;20049;-67
2023/12/01 03:45:18;;;;;;;21.45;11.13;;;;;;;1.44;100.00;92136.00;5048933;28;20068;-67
2023/12/01 03:47:47;;;;;;;23.55;12.40;;;;;;;1.46;100.00;92141.78;5048349;28;20596;-67
2023/12/01 03:50:16;;;;;;;22.50;11.68;;;;;;;1.47;100.00;92130.59;5048585;28;20076;-67
2023/12/01 03:52:47;;;;;;;23.88;12.00;;;;;;;1.51;100.00;92131.31;5048021;28;20037;-67
2023/12/01 03:55:14;;;;;;;21.92;11.30;;;;;;;1.47;100.00;92138.69;5048704;28;20044;-67
2023/12/01 03:57:43;;;;;;;25.52;12.27;;;;;;;1.34;100.00;92132.25;5047982;28;20559;-66
2023/12/01 04:00:13;;;;;;;21.65;10.98;;;;;;;1.35;100.00;92129.16;5047583;28;20045;-67
2023/12/01 04:02:43;;;;;;;20.80;11.23;;;;;;;1.03;100.00;92126.72;5048447;28;20047;-67
2023/12/01 04:05:18;;;;;;;23.20;11.07;;;;;;;1.28;100.00;92136.53;5048794;28;20409;-67
2023/12/01 04:07:52;;;;;;;21.65;11.73;;;;;;;1.41;100.00;92134.88;5047661;28;21585;-66
2023/12/01 04:10:24;;;;;;;25.85;12.55;;;;;;;1.49;100.00;92139.06;5048506;28;20053;-66
2023/12/01 04:12:54;;;;;;;26.23;12.53;;;;;;;1.47;100.00;92149.50;5047069;28;20044;-67
2023/12/01 04:15:24;;;;;;;26.08;11.50;;;;;;;1.48;100.00;92153.72;5047883;28;20037;-67
2023/12/01 04:17:52;;;;;;;22.58;11.55;;;;;;;1.29;100.00;92143.47;5048757;28;20053;-66
2023/12/01 04:20:25;;;;;;;21.52;11.00;;;;;;;1.40;100.00;92144.16;5047012;28;20041;-67
2023/12/01 04:22:54;;;;;;;23.10;11.23;;;;;;;1.36;100.00;92144.19;5047256;28;20508;-67
2023/12/01 04:25:21;;;;;;;21.40;11.03;;;;;;;1.39;100.00;92150.75;5048269;28;20390;-67
2023/12/01 04:27:50;;;;;;;22.48;11.65;;;;;;;1.40;100.00;92144.91;5048332;28;20428;-67
2023/12/01 04:30:17;;;;;;;22.80;12.75;;;;;;;1.34;100.00;92157.31;5048749;28;20047;-66
2023/12/01 04:32:46;;;;;;;27.75;12.00;;;;;;;1.43;100.00;92165.00;5047245;28;21743;-66
2023/12/01 04:35:13;;;;;;;25.83;12.38;;;;;;;1.19;100.00;92166.75;5048561;28;20045;-67
2023/12/01 04:37:41;;;;;;;23.00;12.33;;;;;;;1.36;100.00;92159.63;5046415;28;20037;-66
2023/12/01 04:40:14;;;;;;;21.73;11.65;;;;;;;1.42;100.00;92166.13;5048327;28;20419;-67
2023/12/01 04:42:49;;;;;;;25.40;11.57;;;;;;;1.39;100.00;92153.44;5047747;28;20041;-66
2023/12/01 04:45:20;;;;;;;21.85;11.18;;;;;;;1.36;100.00;92165.03;5048206;28;20045;-67
2023/12/01 04:47:52;;;;;;;24.08;10.60;;;;;;;1.22;100.00;92165.94;5049854;28;21546;-67
2023/12/01 04:50:23;;;;;;;26.23;12.38;;;;;;;1.17;100.00;92177.19;5038874;28;20383;-66
2023/12/01 04:53:00;;;;;;;25.08;11.32;;;;;;;1.29;100.00;92175.91;5051713;28;20049;-66
2023/12/01 04:55:29;;;;;;;24.33;11.60;;;;;;;1.15;100.00;92172.16;5051565;28;20048;-67
2023/12/01 04:57:56;;;;;;;24.83;12.43;;;;;;;1.11;100.00;92168.72;5051640;28;20684;-66
2023/12/01 05:00:26;;;;;;;26.63;12.95;;;;;;;1.06;100.00;92162.97;5051350;28;20049;-67
2023/12/01 05:02:55;;;;;;;27.55;11.95;;;;;;;0.97;100.00;92161.50;5051798;28;20049;-67
2023/12/01 05:05:23;;;;;;;38.53;18.33;;;;;;;1.12;100.00;92164.09;5051077;28;20441;-66
2023/12/01 05:07:53;;;;;;;31.48;14.15;;;;;;;1.22;100.00;92171.34;5051542;28;20048;-66
2023/12/01 05:10:21;;;;;;;23.20;11.95;;;;;;;1.27;100.00;92156.63;5051084;28;20428;-67
2023/12/01 05:12:50;;;;;;;28.65;13.13;;;;;;;1.26;100.00;92160.50;5051414;28;20037;-67
2023/12/01 05:15:22;;;;;;;33.75;14.50;;;;;;;1.28;100.00;92158.16;5051087;28;20052;-67
2023/12/01 05:17:50;;;;;;;29.25;14.23;;;;;;;1.30;100.00;92153.88;5050655;28;20623;-67
2023/12/01 05:20:18;;;;;;;29.85;14.95;;;;;;;1.32;100.00;92153.50;5051217;28;20436;-67
2023/12/01 05:22:47;;;;;;;33.17;14.88;;;;;;;1.34;100.00;92145.75;5050114;28;20580;-67
2023/12/01 05:25:16;;;;;;;30.83;15.60;;;;;;;1.41;100.00;92143.00;5050968;28;20415;-67
2023/12/01 05:27:50;;;;;;;29.20;15.13;;;;;;;1.40;100.00;92139.50;5050663;28;20041;-67
2023/12/01 05:30:19;;;;;;;25.52;13.10;;;;;;;1.49;100.00;92135.56;5038728;28;20049;-66
2023/12/01 05:32:48;;;;;;;28.38;13.45;;;;;;;1.51;100.00;92133.22;5050263;28;20402;-66
2023/12/01 05:35:15;;;;;;;23.70;12.27;;;;;;;1.49;100.00;92149.88;5051198;28;20397;-66
2023/12/01 05:37:49;;;;;;;25.25;12.57;;;;;;;1.43;100.00;92158.78;5048600;28;20044;-66
2023/12/01 05:40:21;;;;;;;23.75;12.23;;;;;;;1.44;100.00;92165.75;5031391;28;20048;-67
2023/12/01 05:42:50;;;;;;;23.30;11.93;;;;;;;1.50;100.00;92166.84;5043759;28;20570;-66
2023/12/01 05:45:16;;;;;;;23.15;11.57;;;;;;;1.46;100.00;92169.56;5050659;28;20047;-66
2023/12/01 05:47:45;;;;;;;22.20;11.20;;;;;;;1.29;100.00;92173.19;5050471;28;20052;-66
2023/12/01 05:50:17;;;;;;;27.15;12.43;;;;;;;1.25;100.00;92177.88;5050777;28;20473;-66
2023/12/01 05:52:45;;;;;;;25.52;12.63;;;;;;;1.19;100.00;92172.91;5049352;28;20426;-66
2023/12/01 05:55:14;;;;;;;20.50;10.80;;;;;;;1.28;100.00;92172.44;5050720;28;20479;-66
2023/12/01 05:57:55;;;;;;;20.52;10.38;;;;;;;1.16;100.00;92172.94;5049463;28;21529;-67
2023/12/01 06:00:29;;;;;;;20.95;11.02;;;;;;;1.25;100.00;92162.44;5050212;28;20041;-66
2023/12/01 06:02:58;;;;;;;20.48;10.80;;;;;;;1.29;100.00;92173.19;5044035;28;20439;-66
2023/12/01 06:05:26;;;;;;;20.13;10.60;;;;;;;1.07;100.00;92175.34;5049731;28;20528;-67
2023/12/01 06:07:55;;;;;;;22.58;11.57;;;;;;;1.26;100.00;92185.56;5050164;28;20086;-67
2023/12/01 06:10:23;;;;;;;21.65;11.52;;;;;;;1.33;100.00;92187.47;5050224;28;20475;-64
2023/12/01 06:12:50;;;;;;;21.58;11.38;;;;;;;1.44;100.00;92198.19;5050062;28;20048;-65
2023/12/01 06:15:18;;;;;;;29.02;14.32;;;;;;;1.32;100.00;92208.31;5048664;28;20402;-65
2023/12/01 06:17:47;;;;;;;28.67;13.27;;;;;;;1.16;100.00;92205.34;5048980;28;22023;-65
2023/12/01 06:20:19;;;;;;;30.10;14.48;;;;;;;1.16;100.00;92210.75;5049937;28;20045;-65
2023/12/01 06:23:15;;;;;;;29.55;13.27;;;;;;;1.08;100.00;92203.88;5048570;28;20606;-65
2023/12/01 06:25:42;;;;;;;28.52;13.43;;;;;;;0.83;100.00;92199.41;5030555;28;20410;-64
2023/12/01 06:28:09;;;;;;;26.65;12.20;;;;;;;0.89;100.00;92200.53;5049782;28;20096;-65
2023/12/01 06:30:37;;;;;;;27.50;12.97;;;;;;;0.75;100.00;92204.09;5049507;28;20546;-65
2023/12/01 06:33:06;;;;;;;27.98;13.48;;;;;;;0.80;100.00;92208.28;5049513;28;20040;-65
2023/12/01 06:35:34;;;;;;;26.08;13.10;;;;;;;1.09;100.00;92216.22;5049616;28;20057;-65
2023/12/01 06:38:01;;;;;;;27.85;13.57;;;;;;;1.16;100.00;92198.00;5049634;28;20051;-65
2023/12/01 06:40:28;;;;;;;32.72;15.90;;;;;;;1.27;100.00;92202.56;5049454;28;20049;-66
2023/12/01 06:42:55;;;;;;;30.20;14.80;;;;;;;1.30;100.00;92209.88;5049689;28;20048;-65
2023/12/01 06:45:28;;;;;;;32.50;15.15;;;;;;;1.31;100.00;92208.69;5049303;28;20391;-65
2023/12/01 06:47:59;;;;;;;31.73;15.30;;;;;;;1.16;100.00;92206.13;5048198;28;20041;-66
2023/12/01 06:50:28;;;;;;;34.08;15.38;;;;;;;0.95;100.00;92207.06;5048858;28;20041;-67
2023/12/01 06:52:59;;;;;;;32.05;15.85;;;;;;;0.88;100.00;92217.13;5049346;28;20053;-66
2023/12/01 06:55:26;;;;;;;28.13;13.80;;;;;;;1.12;100.00;92224.28;5049173;28;20131;-67
2023/12/01 06:57:53;;;;;;;30.60;13.75;;;;;;;1.17;100.00;92226.56;5049317;28;20501;-66
2023/12/01 07:02:56;;;;;;;29.98;14.55;;;;;;;0.94;100.00;92221.69;5049476;28;20520;-66
2023/12/01 07:05:25;;;;;;;27.23;13.20;;;;;;;1.10;100.00;92218.50;5048944;28;20036;-67
2023/12/01 07:07:53;;;;;;;24.55;12.65;;;;;;;1.19;100.00;92221.53;5046812;28;20052;-66
2023/12/01 07:10:21;;;;;;;25.42;12.82;;;;;;;1.30;100.00;92228.78;5048273;28;20037;-66
2023/12/01 07:12:49;;;;;;;26.70;12.77;;;;;;;1.31;100.00;92233.03;5049200;28;20051;-66
2023/12/01 07:15:20;;;;;;;29.85;14.23;;;;;;;1.27;100.00;92232.28;5049009;28;20063;-66
2023/12/01 07:17:52;;;;;;;28.80;14.35;;;;;;;1.18;100.00;92236.19;5046918;28;20755;-65
2023/12/01 07:20:20;;;;;;;27.20;13.02;;;;;;;0.97;100.00;92241.78;5032813;28;20041;-63
2023/12/01 07:22:48;;;;;;;28.02;13.18;;;;;;;1.04;100.00;92235.53;5027148;28;20094;-65
2023/12/01 07:25:25;;;;;;;30.02;14.30;;;;;;;0.89;100.00;92230.25;5026984;28;20056;-67
2023/12/01 07:28:05;;;;;;;34.97;15.82;;;;;;;0.48;100.00;92214.63;5042644;28;20399;-66
2023/12/01 07:30:32;;;;;;;30.92;13.98;;;;;;;0.66;100.00;92222.66;5042366;28;20047;-63
2023/12/01 07:33:01;;;;;;;31.02;14.02;;;;;;;1.00;100.00;92232.84;5046542;28;20316;-67
2023/12/01 07:35:28;;;;;;;26.80;13.60;;;;;;;1.10;100.00;92229.31;5046568;28;20037;-66
2023/12/01 07:37:55;;;;;;;26.13;13.52;;;;;;;1.23;100.00;92237.72;5046764;28;20406;-66
2023/12/01 07:40:23;;;;;;;27.17;14.13;;;;;;;1.23;100.00;92243.13;5046133;28;20037;-66
2023/12/01 07:42:54;;;;;;;30.77;15.15;;;;;;;1.23;100.00;92245.03;5046911;28;20445;-65
2023/12/01 07:45:22;;;;;;;29.65;15.30;;;;;;;1.20;100.00;92257.44;5046280;28;20537;-66
2023/12/01 07:47:54;;;;;;;34.50;15.45;;;;;;;1.27;100.00;92245.78;5045531;28;20590;-65
2023/12/01 07:50:22;;;;;;;30.02;14.90;;;;;;;1.24;100.00;92263.56;5046168;28;20041;-66
2023/12/01 07:52:50;;;;;;;32.63;16.10;;;;;;;1.23;100.00;92263.97;5047240;28;20679;-65
2023/12/01 07:55:21;;;;;;;37.92;18.48;;;;;;;1.10;100.00;92269.84;5046305;28;20045;-65
2023/12/01 07:57:47;;;;;;;35.40;16.27;;;;;;;0.85;100.00;92269.25;5043072;28;20847;-68
2023/12/01 08:00:16;;;;;;;31.58;15.43;;;;;;;1.10;100.00;92259.03;5045993;28;20053;-68
2023/12/01 08:02:44;;;;;;;36.50;16.30;;;;;;;1.35;100.00;92260.81;5041344;28;20040;-67
2023/12/01 08:05:13;;;;;;;41.47;18.83;;;;;;;1.35;100.00;92260.81;5046626;28;20113;-63
2023/12/01 08:07:52;;;;;;;37.63;17.40;;;;;;;1.27;100.00;92253.91;5046451;28;20057;-66
2023/12/01 08:10:22;;;;;;;35.30;17.00;;;;;;;1.29;100.00;92257.75;5039255;28;20397;-66
2023/12/01 08:12:51;;;;;;;37.15;17.40;;;;;;;1.45;100.00;92246.44;5045812;28;20052;-67
2023/12/01 08:15:18;;;;;;;31.27;15.75;;;;;;;1.58;100.00;92252.13;5046377;28;20045;-64
2023/12/01 08:17:45;;;;;;;32.42;15.60;;;;;;;1.63;100.00;92253.63;5045486;28;21548;-64
2023/12/01 08:20:14;;;;;;;31.80;15.77;;;;;;;1.74;100.00;92259.72;5046352;28;20033;-65
2023/12/01 08:22:43;;;;;;;38.22;17.92;;;;;;;1.59;100.00;92264.50;5048251;28;20048;-65
2023/12/01 08:25:12;;;;;;;35.38;15.82;;;;;;;1.74;100.00;92265.13;5050556;28;20045;-65
2023/12/01 08:27:39;;;;;;;36.17;16.90;;;;;;;1.70;100.00;92256.28;5050150;28;20045;-62
2023/12/01 08:30:07;;;;;;;55.05;23.50;;;;;;;1.57;100.00;92243.25;5049261;28;20045;-62
2023/12/01 08:32:34;;;;;;;37.85;17.20;;;;;;;0.90;100.00;92250.66;5048695;28;20049;-64
2023/12/01 08:35:01;;;;;;;26.45;12.68;;;;;;;0.93;100.00;92249.13;5050159;28;20047;-66
2023/12/01 08:37:29;;;;;;;28.55;13.02;;;;;;;1.02;100.00;92241.34;5049339;28;20452;-65
2023/12/01 08:39:55;;;;;;;30.15;14.68;;;;;;;1.05;100.00;92228.97;5050434;28;20066;-64
2023/12/01 08:42:23;;;;;;;25.17;12.90;;;;;;;1.28;100.00;92226.47;5047846;28;20052;-66
2023/12/01 08:44:50;;;;;;;26.25;13.27;;;;;;;1.56;100.00;92233.59;5050214;28;20045;-70
2023/12/01 08:47:20;;;;;;;30.05;14.43;;;;;;;1.58;100.00;92239.38;5048944;28;20041;-64
2023/12/01 08:49:49;;;;;;;33.22;14.25;;;;;;;1.33;100.00;92244.22;5049186;28;20732;-70
2023/12/01 08:52:16;;;;;;;36.10;14.40;;;;;;;1.38;100.00;92241.84;5050052;28;20049;-67
2023/12/01 08:54:43;;;;;;;32.80;14.23;;;;;;;1.52;100.00;92240.97;5048942;28;20043;-65
2023/12/01 08:57:10;;;;;;;32.58;15.23;;;;;;;1.39;100.00;92258.84;5050312;28;20043;-71
2023/12/01 08:59:37;;;;;;;31.23;13.63;;;;;;;0.85;100.00;92248.41;5045543;28;20045;-71
2023/12/01 09:02:05;;;;;;;21.48;10.65;;;;;;;0.77;100.00;92257.69;5046669;28;20597;-74
2023/12/01 09:04:37;;;;;;;24.25;11.30;;;;;;;0.61;100.00;92260.09;5048522;28;20049;-72
2023/12/01 09:07:04;;;;;;;30.67;13.32;;;;;;;0.59;100.00;92265.88;5049927;28;20051;-65
2023/12/01 09:09:33;;;;;;;20.17;10.43;;;;;;;0.87;100.00;92264.97;5048940;28;20036;-70
2023/12/01 09:12:00;;;;;;;23.77;11.30;;;;;;;0.87;100.00;92264.97;5050053;28;20041;-70
2023/12/01 09:14:27;;;;;;;21.52;10.45;;;;;;;0.99;100.00;92267.22;5047753;28;20076;-69
2023/12/01 09:16:54;;;;;;;24.20;11.68;;;;;;;1.07;100.00;92267.94;5049624;28;20044;-70
2023/12/01 09:19:20;;;;;;;21.05;9.77;;;;;;;1.21;100.00;92280.59;5048097;28;20701;-69
2023/12/01 09:21:48;;;;;;;20.88;9.95;;;;;;;1.20;100.00;92279.03;5049816;28;20045;-70
2023/12/01 09:24:15;;;;;;;19.17;9.77;;;;;;;1.17;100.00;92287.97;5047473;28;20063;-70
2023/12/01 09:26:41;;;;;;;25.90;11.52;;;;;;;1.30;100.00;92301.75;5047572;28;20055;-70
2023/12/01 09:29:08;;;;;;;32.35;11.02;;;;;;;1.54;100.00;92300.81;5049220;28;20051;-70
2023/12/01 09:31:48;;;;;;;19.55;10.07;;;;;;;1.75;100.00;92312.63;5048590;28;20094;-70
2023/12/01 09:34:15;;;;;;;21.23;9.93;;;;;;;1.60;100.00;92301.16;5047088;28;20494;-70
2023/12/01 09:36:42;;;;;;;23.55;10.30;;;;;;;1.38;100.00;92295.13;5048657;28;20072;-70
2023/12/01 09:39:09;;;;;;;26.80;9.50;;;;;;;1.17;100.00;92288.72;5048297;28;20037;-69
2023/12/01 09:41:36;;;;;;;20.83;9.52;;;;;;;1.13;100.00;92296.06;5048036;28;20052;-69
2023/12/01 09:44:03;;;;;;;34.28;14.57;;;;;;;1.02;100.00;92302.69;5048190;28;20404;-70
2023/12/01 09:46:39;;;;;;;17.15;8.18;;;;;;;1.16;100.00;92292.56;5048341;28;20070;-69
2023/12/01 09:49:06;;;;;;;21.20;8.85;;;;;;;0.91;100.00;92281.16;5048506;28;20551;-70
2023/12/01 09:51:36;;;;;;;19.42;8.60;;;;;;;0.99;100.00;92275.31;5046940;28;20451;-70
2023/12/01 09:54:04;;;;;;;18.23;9.40;;;;;;;1.11;100.00;92257.13;5048249;28;20476;-68
2023/12/01 09:56:31;;;;;;;22.10;10.63;;;;;;;0.67;100.00;92251.19;5047823;28;20105;-62
2023/12/01 09:58:59;;;;;;;19.23;9.70;;;;;;;0.56;100.00;92234.28;5048128;28;20041;-61
2023/12/01 10:01:26;;;;;;;19.23;9.57;;;;;;;0.58;100.00;92240.84;5045761;28;20043;-61
2023/12/01 10:03:53;;;;;;;19.02;9.73;;;;;;;0.95;100.00;92249.50;5046561;28;20044;-62
2023/12/01 10:06:21;;;;;;;22.48;10.68;;;;;;;0.81;100.00;92266.56;5048121;28;20443;-62
2023/12/01 10:08:49;;;;;;;25.33;12.27;;;;;;;0.83;100.00;92269.63;5048409;28;20045;-61
2023/12/01 10:11:24;;;;;;;18.70;9.90;;;;;;;0.79;100.00;92252.69;5048139;28;20032;-62
2023/12/01 10:13:52;;;;;;;22.15;11.35;;;;;;;0.66;100.00;92255.03;5045036;28;20712;-61
2023/12/01 10:16:20;;;;;;;26.00;12.23;;;;;;;0.88;100.00;92254.94;5047929;28;20053;-61
2023/12/01 10:19:04;;;;;;;25.70;12.35;;;;;;;1.00;100.00;92259.88;5046022;28;20885;-61
2023/12/01 10:21:46;;;;;;;16.65;8.90;;;;;;;1.12;100.00;92256.69;5047100;28;20221;-61
2023/12/01 10:24:14;;;;;;;21.52;11.05;;;;;;;1.21;100.00;92253.56;5047936;28;20405;-64
2023/12/01 10:26:43;;;;;;;18.97;8.80;;;;;;;1.47;100.00;92238.72;5046320;28;20044;-62
2023/12/01 10:29:28;;;;;;;16.25;8.48;;;;;;;1.47;100.00;92240.63;5047492;28;20041;-61
2023/12/01 10:32:07;;;;;;;15.30;7.78;;;;;;;1.64;100.00;92239.72;5046989;28;20085;-63
2023/12/01 10:34:37;;;;;;;14.93;8.25;;;;;;;1.66;100.00;92239.31;5040961;28;20502;-64
2023/12/01 10:37:04;;;;;;;16.77;9.00;;;;;;;1.56;100.00;92230.88;5046896;28;20040;-63
2023/12/01 10:39:31;;;;;;;17.73;7.90;;;;;;;1.35;100.00;92221.03;5047651;28;20048;-62
2023/12/01 10:41:59;;;;;;;16.83;7.72;;;;;;;1.34;100.00;92234.94;5046835;28;20122;-64
2023/12/01 10:44:31;;;;;;;23.13;14.23;;;;;;;1.05;100.00;92227.06;5046484;28;20044;-63
2023/12/01 10:46:59;;;;;;;19.92;11.38;;;;;;;1.50;100.00;92229.78;5047593;28;20045;-61
2023/12/01 10:49:26;;;;;;;21.70;11.40;;;;;;;1.73;100.00;92226.50;5045594;28;20036;-64
2023/12/01 10:51:55;;;;;;;15.15;8.48;;;;;;;1.92;100.00;92219.72;5047460;28;20045;-60
2023/12/01 10:54:24;;;;;;;16.20;8.60;;;;;;;1.91;100.00;92229.03;5046931;28;20047;-63
2023/12/01 10:57:16;;;;;;;15.68;8.43;;;;;;;2.04;100.00;92233.94;5045968;28;20051;-61
2023/12/01 10:59:54;;;;;;;12.02;6.85;;;;;;;2.11;100.00;92228.44;5044417;28;20041;-65
2023/12/01 11:02:26;;;;;;;14.35;7.30;;;;;;;2.15;100.00;92227.22;5045471;28;20041;-64
2023/12/01 11:04:54;;;;;;;15.50;7.60;;;;;;;1.68;100.00;92221.50;5046299;28;20045;-64
2023/12/01 11:07:27;;;;;;;15.68;8.15;;;;;;;1.42;100.00;92214.78;5045744;28;20487;-64
2023/12/01 11:10:12;;;;;;;13.93;7.68;;;;;;;0.61;100.00;92214.97;5047488;28;20041;-64
2023/12/01 11:13:09;;;;;;;14.38;7.03;;;;;;;0.93;100.00;92216.72;5046602;28;20045;-63
2023/12/01 11:15:39;;;;;;;18.40;7.75;;;;;;;1.36;100.00;92198.22;5045604;28;20041;-63
2023/12/01 11:18:10;;;;;;;15.77;8.80;;;;;;;1.44;100.00;92204.34;5046828;28;20076;-64
2023/12/01 11:20:44;;;;;;;13.85;7.47;;;;;;;1.54;100.00;92206.19;5044002;28;20566;-67
2023/12/01 11:23:12;;;;;;;13.02;7.53;;;;;;;1.59;100.00;92191.50;5046833;28;20041;-65
2023/12/01 11:25:46;;;;;;;14.57;7.82;;;;;;;1.50;100.00;92194.63;5036573;28;20067;-65
2023/12/01 11:28:22;;;;;;;16.67;8.38;;;;;;;1.57;100.00;92193.78;5046378;28;20064;-66
2023/12/01 11:31:08;;;;;;;17.97;8.40;;;;;;;1.45;100.00;92181.56;5045915;28;20571;-65